createdAt,value
2017-04-08T00:00:20.765Z,11.75
2017-04-08T00:01:21.055Z,11.78
2017-04-08T00:02:21.024Z,11.7
2017-04-08T00:03:21.051Z,11.82
2017-04-08T00:04:20.979Z,11.81
2017-04-08T00:05:21.062Z,11.74
2017-04-08T00:06:20.634Z,11.79
2017-04-08T00:07:20.913Z,11.74
2017-04-08T00:08:20.894Z,11.78
2017-04-08T00:09:20.567Z,11.75
2017-04-08T00:10:20.880Z,11.75
2017-04-08T00:11:20.826Z,11.79
2017-04-08T00:12:20.865Z,11.77
2017-04-08T00:13:20.486Z,11.78
2017-04-08T00:14:20.769Z,11.72
2017-04-08T00:15:20.740Z,11.72
2017-04-08T00:16:20.768Z,11.75
2017-04-08T00:17:20.700Z,11.75
2017-04-08T00:18:20.729Z,11.7
2017-04-08T00:19:20.654Z,11.69
2017-04-08T00:20:20.630Z,11.66
2017-04-08T00:21:20.608Z,11.7
2017-04-08T00:22:20.279Z,11.6
2017-04-08T00:23:20.564Z,11.66
2017-04-08T00:24:20.538Z,11.59
2017-04-08T00:25:20.521Z,11.64
2017-04-08T00:26:20.496Z,11.62
2017-04-08T00:27:20.473Z,11.54
2017-04-08T00:28:20.467Z,11.54
2017-04-08T00:29:20.440Z,11.59
2017-04-08T00:30:20.405Z,11.53
2017-04-08T00:31:20.486Z,11.62
2017-04-08T00:32:20.363Z,11.53
2017-04-08T00:33:20.345Z,11.56
2017-04-08T00:34:20.322Z,11.54
2017-04-08T00:35:20.304Z,11.51
2017-04-08T00:36:20.276Z,11.46
2017-04-08T00:37:20.310Z,11.53
2017-04-08T00:38:20.236Z,11.49
2017-04-08T00:39:20.210Z,11.36
2017-04-08T00:40:20.196Z,11.44
2017-04-08T00:41:20.366Z,11.49
2017-04-08T00:42:20.147Z,11.38
2017-04-08T00:43:20.121Z,11.42
2017-04-08T00:44:20.100Z,11.44
2017-04-08T00:45:20.083Z,11.33
2017-04-08T00:46:20.068Z,11.42
2017-04-08T00:47:20.036Z,11.41
2017-04-08T00:48:20.011Z,11.38
2017-04-08T00:49:19.999Z,11.31
2017-04-08T00:50:19.968Z,11.39
2017-04-08T00:51:19.995Z,11.33
2017-04-08T00:52:19.925Z,11.36
2017-04-08T00:53:19.903Z,11.41
2017-04-08T00:54:19.881Z,11.28
2017-04-08T00:55:19.859Z,11.39
2017-04-08T00:56:19.830Z,11.41
2017-04-08T00:57:19.814Z,11.38
2017-04-08T00:58:19.787Z,11.31
2017-04-08T00:59:19.777Z,11.21
2017-04-08T01:00:19.746Z,11.26
2017-04-08T01:01:19.719Z,11.26
2017-04-08T01:02:19.704Z,11.33
2017-04-08T01:03:19.679Z,11.31
2017-04-08T01:04:19.656Z,11.2
2017-04-08T01:05:19.632Z,11.35
2017-04-08T01:06:19.607Z,11.31
2017-04-08T01:07:19.586Z,11.33
2017-04-08T01:08:19.574Z,11.24
2017-04-08T01:09:20.664Z,11.33
2017-04-08T01:10:19.744Z,11.36
2017-04-08T01:11:19.505Z,11.44
2017-04-08T01:12:19.473Z,11.51
2017-04-08T01:13:19.463Z,11.48
2017-04-08T01:14:19.445Z,11.56
2017-04-08T01:15:19.422Z,11.6
2017-04-08T01:16:19.392Z,11.72
2017-04-08T01:17:19.375Z,11.81
2017-04-08T01:18:19.398Z,11.84
2017-04-08T01:19:19.322Z,11.81
2017-04-08T01:20:19.301Z,11.78
2017-04-08T01:21:19.280Z,11.72
2017-04-08T01:22:19.516Z,11.69
2017-04-08T01:23:19.236Z,11.75
2017-04-08T01:24:19.213Z,11.82
2017-04-08T01:25:19.188Z,11.81
2017-04-08T01:26:19.169Z,11.7
2017-04-08T01:27:19.145Z,11.67
2017-04-08T01:28:19.128Z,11.75
2017-04-08T01:29:19.099Z,11.69
2017-04-08T01:30:19.081Z,11.67
2017-04-08T01:31:19.056Z,11.69
2017-04-08T01:32:19.044Z,11.87
2017-04-08T01:33:19.060Z,11.81
2017-04-08T01:34:18.993Z,11.94
2017-04-08T01:35:18.967Z,12.01
2017-04-08T01:36:18.949Z,11.94
2017-04-08T01:37:18.927Z,11.96
2017-04-08T01:38:18.910Z,11.93
2017-04-08T01:39:18.879Z,11.81
2017-04-08T01:40:18.859Z,11.82
2017-04-08T01:41:18.837Z,11.77
2017-04-08T01:42:18.826Z,11.57
2017-04-08T01:43:18.788Z,11.63
2017-04-08T01:44:18.797Z,11.57
2017-04-08T01:45:18.743Z,11.59
2017-04-08T01:46:18.726Z,11.54
2017-04-08T01:47:18.702Z,11.41
2017-04-08T01:48:18.386Z,11.44
2017-04-08T01:49:18.661Z,11.31
2017-04-08T01:50:18.635Z,11.21
2017-04-08T01:51:18.667Z,11.11
2017-04-08T01:52:18.643Z,11.08
2017-04-08T01:53:18.633Z,11.08
2017-04-08T01:54:18.550Z,11.02
2017-04-08T01:55:18.529Z,10.99
2017-04-08T01:56:18.504Z,10.95
2017-04-08T01:57:18.485Z,10.95
2017-04-08T01:58:18.462Z,10.86
2017-04-08T01:59:18.442Z,10.87
2017-04-08T02:00:18.414Z,11.02
2017-04-08T02:01:18.395Z,10.86
2017-04-08T02:02:18.369Z,10.9
2017-04-08T02:03:18.404Z,10.95
2017-04-08T02:04:18.330Z,10.93
2017-04-08T02:05:18.303Z,10.86
2017-04-08T02:06:18.286Z,10.9
2017-04-08T02:07:18.259Z,10.83
2017-04-08T02:08:18.234Z,10.87
2017-04-08T02:09:18.223Z,10.83
2017-04-08T02:10:18.190Z,10.87
2017-04-08T02:11:17.916Z,10.83
2017-04-08T02:12:18.145Z,10.87
2017-04-08T02:13:19.084Z,10.84
2017-04-08T02:14:18.101Z,10.68
2017-04-08T02:15:18.075Z,10.76
2017-04-08T02:16:18.054Z,10.72
2017-04-08T02:17:18.037Z,10.81
2017-04-08T02:18:17.718Z,10.68
2017-04-08T02:19:17.993Z,10.75
2017-04-08T02:20:18.023Z,10.76
2017-04-08T02:21:17.639Z,10.81
2017-04-08T02:22:17.919Z,10.73
2017-04-08T02:23:17.902Z,10.65
2017-04-08T02:24:17.879Z,10.65
2017-04-08T02:25:17.863Z,10.7
2017-04-08T02:26:17.838Z,10.72
2017-04-08T02:27:17.811Z,10.63
2017-04-08T02:28:17.800Z,10.8
2017-04-08T02:29:17.777Z,10.73
2017-04-08T02:30:17.741Z,10.68
2017-04-08T02:31:17.725Z,10.75
2017-04-08T02:32:17.403Z,10.7
2017-04-08T02:33:17.690Z,10.73
2017-04-08T02:34:17.652Z,10.75
2017-04-08T02:35:17.335Z,10.7
2017-04-08T02:36:17.309Z,10.81
2017-04-08T02:37:17.588Z,10.72
2017-04-08T02:38:17.567Z,10.76
2017-04-08T02:39:17.604Z,10.81
2017-04-08T02:40:17.522Z,10.83
2017-04-08T02:41:17.499Z,10.7
2017-04-08T02:42:17.478Z,10.75
2017-04-08T02:43:17.456Z,10.75
2017-04-08T02:44:17.134Z,10.69
2017-04-08T02:45:17.407Z,10.69
2017-04-08T02:46:17.392Z,10.78
2017-04-08T02:47:17.364Z,10.7
2017-04-08T02:48:17.359Z,10.78
2017-04-08T02:49:17.324Z,10.68
2017-04-08T02:50:17.297Z,10.62
2017-04-08T02:51:17.272Z,10.72
2017-04-08T02:52:17.254Z,10.63
2017-04-08T02:53:17.252Z,10.57
2017-04-08T02:54:17.206Z,10.57
2017-04-08T02:55:17.183Z,10.57
2017-04-08T02:56:17.242Z,10.65
2017-04-08T02:57:17.136Z,10.58
2017-04-08T02:58:17.111Z,10.58
2017-04-08T02:59:18.052Z,10.55
2017-04-08T03:00:17.077Z,10.51
2017-04-08T03:01:17.050Z,10.63
2017-04-08T03:02:17.035Z,10.58
2017-04-08T03:03:17.013Z,10.58
2017-04-08T03:04:16.982Z,10.49
2017-04-08T03:05:16.962Z,10.47
2017-04-08T03:06:16.936Z,10.58
2017-04-08T03:07:16.916Z,10.49
2017-04-08T03:08:16.892Z,10.69
2017-04-08T03:09:16.866Z,10.51
2017-04-08T03:10:16.898Z,10.49
2017-04-08T03:11:16.831Z,10.57
2017-04-08T03:12:16.806Z,10.55
2017-04-08T03:13:16.779Z,10.47
2017-04-08T03:14:16.759Z,10.55
2017-04-08T03:15:16.729Z,10.49
2017-04-08T03:16:16.713Z,10.36
2017-04-08T03:17:16.692Z,10.55
2017-04-08T03:18:16.365Z,10.38
2017-04-08T03:19:16.644Z,10.49
2017-04-08T03:20:16.676Z,10.42
2017-04-08T03:21:16.300Z,10.38
2017-04-08T03:22:16.579Z,10.49
2017-04-08T03:23:16.559Z,10.46
2017-04-08T03:24:16.539Z,10.44
2017-04-08T03:25:16.508Z,10.38
2017-04-08T03:26:16.493Z,10.35
2017-04-08T03:27:16.468Z,10.52
2017-04-08T03:28:16.449Z,10.46
2017-04-08T03:29:16.426Z,10.39
2017-04-08T03:30:16.100Z,10.46
2017-04-08T03:31:16.381Z,10.38
2017-04-08T03:32:16.354Z,10.52
2017-04-08T03:33:16.333Z,10.49
2017-04-08T03:34:16.605Z,10.39
2017-04-08T03:35:16.297Z,10.35
2017-04-08T03:36:16.263Z,10.32
2017-04-08T03:37:16.246Z,10.35
2017-04-08T03:38:16.224Z,10.35
2017-04-08T03:39:16.208Z,10.35
2017-04-08T03:40:16.176Z,10.39
2017-04-08T03:41:16.155Z,10.24
2017-04-08T03:42:16.127Z,10.29
2017-04-08T03:43:16.110Z,10.31
2017-04-08T03:44:16.079Z,10.38
2017-04-08T03:45:16.058Z,10.28
2017-04-08T03:46:16.040Z,10.25
2017-04-08T03:47:16.021Z,10.22
2017-04-08T03:48:15.993Z,10.34
2017-04-08T03:49:15.976Z,10.28
2017-04-08T03:50:15.953Z,10.24
2017-04-08T03:51:15.930Z,10.26
2017-04-08T03:52:15.902Z,10.26
2017-04-08T03:53:15.886Z,10.31
2017-04-08T03:54:15.857Z,10.29
2017-04-08T03:55:15.834Z,10.24
2017-04-08T03:56:15.820Z,10.26
2017-04-08T03:57:15.798Z,10.28
2017-04-08T03:58:15.776Z,10.28
2017-04-08T03:59:15.749Z,10.31
2017-04-08T04:00:16.022Z,10.24
2017-04-08T04:01:15.705Z,10.2
2017-04-08T04:02:15.681Z,10.25
2017-04-08T04:03:15.657Z,10.26
2017-04-08T04:04:15.638Z,10.26
2017-04-08T04:05:15.660Z,10.26
2017-04-08T04:06:15.587Z,10.28
2017-04-08T04:07:15.563Z,10.28
2017-04-08T04:08:15.547Z,10.25
2017-04-08T04:09:15.523Z,10.25
2017-04-08T04:10:15.498Z,10.14
2017-04-08T04:11:15.474Z,10.18
2017-04-08T04:12:15.501Z,10.16
2017-04-08T04:13:15.426Z,10.22
2017-04-08T04:14:15.562Z,10.17
2017-04-08T04:15:15.384Z,10.17
2017-04-08T04:16:15.407Z,10.17
2017-04-08T04:17:15.349Z,10.24
2017-04-08T04:18:15.317Z,10.2
2017-04-08T04:19:15.298Z,10.2
2017-04-08T04:20:15.272Z,10.17
2017-04-08T04:21:15.252Z,10.26
2017-04-08T04:22:15.223Z,10.28
2017-04-08T04:23:15.205Z,10.18
2017-04-08T04:24:15.187Z,10.22
2017-04-08T04:25:15.153Z,10.2
2017-04-08T04:26:15.175Z,10.28
2017-04-08T04:27:15.119Z,10.16
2017-04-08T04:28:15.089Z,10.1
2017-04-08T04:29:15.074Z,10.14
2017-04-08T04:30:15.049Z,10.02
2017-04-08T04:31:15.028Z,10.09
2017-04-08T04:32:14.999Z,10.09
2017-04-08T04:33:14.979Z,9.93
2017-04-08T04:34:14.956Z,10.02
2017-04-08T04:35:14.933Z,10.07
2017-04-08T04:36:14.910Z,9.89
2017-04-08T04:37:14.942Z,9.96
2017-04-08T04:38:14.869Z,10.02
2017-04-08T04:39:14.848Z,9.92
2017-04-08T04:40:14.833Z,9.95
2017-04-08T04:41:14.895Z,9.98
2017-04-08T04:42:15.034Z,9.92
2017-04-08T04:43:15.900Z,9.99
2017-04-08T04:44:14.732Z,9.95
2017-04-08T04:45:14.705Z,9.93
2017-04-08T04:46:14.681Z,9.99
2017-04-08T04:47:14.669Z,10.01
2017-04-08T04:48:14.639Z,9.92
2017-04-08T04:49:14.626Z,9.99
2017-04-08T04:50:14.600Z,9.93
2017-04-08T04:51:14.581Z,10.01
2017-04-08T04:52:14.554Z,10.01
2017-04-08T04:53:14.535Z,10.04
2017-04-08T04:54:14.722Z,9.99
2017-04-08T04:55:14.474Z,10.09
2017-04-08T04:56:14.461Z,10.04
2017-04-08T04:57:14.430Z,9.99
2017-04-08T04:58:14.409Z,9.99
2017-04-08T04:59:14.394Z,9.91
2017-04-08T05:00:14.368Z,9.95
2017-04-08T05:01:14.349Z,9.91
2017-04-08T05:02:14.330Z,9.98
2017-04-08T05:03:14.307Z,9.95
2017-04-08T05:04:14.283Z,10.06
2017-04-08T05:05:14.263Z,10.01
2017-04-08T05:06:14.231Z,9.98
2017-04-08T05:07:14.220Z,10.04
2017-04-08T05:08:14.184Z,9.99
2017-04-08T05:09:14.168Z,10.07
2017-04-08T05:10:13.834Z,10.07
2017-04-08T05:11:14.111Z,10.09
2017-04-08T05:12:14.093Z,10.06
2017-04-08T05:13:14.078Z,10.1
2017-04-08T05:14:14.047Z,10.11
2017-04-08T05:15:14.026Z,10.09
2017-04-08T05:16:13.993Z,10.13
2017-04-08T05:17:13.978Z,10.11
2017-04-08T05:18:13.968Z,10.24
2017-04-08T05:19:13.937Z,10.13
2017-04-08T05:20:13.914Z,10.09
2017-04-08T05:21:13.887Z,10.07
2017-04-08T05:22:13.869Z,10.07
2017-04-08T05:23:13.850Z,10.14
2017-04-08T05:24:13.515Z,10.04
2017-04-08T05:25:13.810Z,10.13
2017-04-08T05:26:13.474Z,10.18
2017-04-08T05:27:13.751Z,10.11
2017-04-08T05:28:13.733Z,10.2
2017-04-08T05:29:13.733Z,10.24
2017-04-08T05:30:13.387Z,10.14
2017-04-08T05:31:13.664Z,10.17
2017-04-08T05:32:13.645Z,10.2
2017-04-08T05:33:13.610Z,10.22
2017-04-08T05:34:13.601Z,10.29
2017-04-08T05:35:13.574Z,10.17
2017-04-08T05:36:13.555Z,10.17
2017-04-08T05:37:13.527Z,10.2
2017-04-08T05:38:13.506Z,10.25
2017-04-08T05:39:13.490Z,10.29
2017-04-08T05:40:13.459Z,10.29
2017-04-08T05:41:13.440Z,10.29
2017-04-08T05:42:13.423Z,10.25
2017-04-08T05:43:13.396Z,10.26
2017-04-08T05:44:13.368Z,10.28
2017-04-08T05:45:13.350Z,10.35
2017-04-08T05:46:13.320Z,10.24
2017-04-08T05:47:13.303Z,10.29
2017-04-08T05:48:13.331Z,10.29
2017-04-08T05:49:13.257Z,10.25
2017-04-08T05:50:13.238Z,10.24
2017-04-08T05:51:13.216Z,10.35
2017-04-08T05:52:13.192Z,10.32
2017-04-08T05:53:13.168Z,10.28
2017-04-08T05:54:13.145Z,10.18
2017-04-08T05:55:13.281Z,10.31
2017-04-08T05:56:13.100Z,10.34
2017-04-08T05:57:12.777Z,10.28
2017-04-08T05:58:13.065Z,10.26
2017-04-08T05:59:13.033Z,10.29
2017-04-08T06:00:13.011Z,10.32
2017-04-08T06:01:12.986Z,10.36
2017-04-08T06:02:12.963Z,10.38
2017-04-08T06:03:12.946Z,10.31
2017-04-08T06:04:12.918Z,10.34
2017-04-08T06:05:12.909Z,10.28
2017-04-08T06:06:12.935Z,10.25
2017-04-08T06:07:12.917Z,10.32
2017-04-08T06:08:12.834Z,10.32
2017-04-08T06:09:12.811Z,10.31
2017-04-08T06:10:12.792Z,10.43
2017-04-08T06:11:12.790Z,10.42
2017-04-08T06:12:12.440Z,10.43
2017-04-08T06:13:12.790Z,10.44
2017-04-08T06:14:12.696Z,10.43
2017-04-08T06:15:12.729Z,10.55
2017-04-08T06:16:12.686Z,10.47
2017-04-08T06:17:12.633Z,10.47
2017-04-08T06:18:12.659Z,10.46
2017-04-08T06:19:12.644Z,10.57
2017-04-08T06:20:12.562Z,10.57
2017-04-08T06:21:12.556Z,10.47
2017-04-08T06:22:12.518Z,10.51
2017-04-08T06:23:12.513Z,10.52
2017-04-08T06:24:12.472Z,10.65
2017-04-08T06:25:12.454Z,10.6
2017-04-08T06:26:12.445Z,10.6
2017-04-08T06:27:12.416Z,10.6
2017-04-08T06:28:12.418Z,10.58
2017-04-08T06:29:12.367Z,10.63
2017-04-08T06:30:12.335Z,10.57
2017-04-08T06:31:12.317Z,10.65
2017-04-08T06:32:12.344Z,10.54
2017-04-08T06:33:12.024Z,10.63
2017-04-08T06:34:12.253Z,10.55
2017-04-08T06:35:12.237Z,10.62
2017-04-08T06:36:12.215Z,10.62
2017-04-08T06:37:12.784Z,10.62
2017-04-08T06:38:12.164Z,10.6
2017-04-08T06:39:12.143Z,10.62
2017-04-08T06:40:12.118Z,10.68
2017-04-08T06:41:12.101Z,10.68
2017-04-08T06:42:12.073Z,10.69
2017-04-08T06:43:12.051Z,10.66
2017-04-08T06:44:12.035Z,10.68
2017-04-08T06:45:12.034Z,10.68
2017-04-08T06:46:11.984Z,10.78
2017-04-08T06:47:11.964Z,10.86
2017-04-08T06:48:11.943Z,10.7
2017-04-08T06:49:11.922Z,10.88
2017-04-08T06:50:11.894Z,10.72
2017-04-08T06:51:11.878Z,10.86
2017-04-08T06:52:11.855Z,10.78
2017-04-08T06:53:11.832Z,10.87
2017-04-08T06:54:11.809Z,10.8
2017-04-08T06:55:11.788Z,10.9
2017-04-08T06:56:11.765Z,10.84
2017-04-08T06:57:11.771Z,10.91
2017-04-08T06:58:11.721Z,10.87
2017-04-08T06:59:11.701Z,10.81
2017-04-08T07:00:11.674Z,10.83
2017-04-08T07:01:11.652Z,10.87
2017-04-08T07:02:11.636Z,10.9
2017-04-08T07:03:11.610Z,10.88
2017-04-08T07:04:11.595Z,11.03
2017-04-08T07:05:11.615Z,10.94
2017-04-08T07:06:11.849Z,10.99
2017-04-08T07:07:11.568Z,11.11
2017-04-08T07:08:11.502Z,11.06
2017-04-08T07:09:11.227Z,11.11
2017-04-08T07:10:11.463Z,11.12
2017-04-08T07:11:11.436Z,11.11
2017-04-08T07:12:11.418Z,11.17
2017-04-08T07:13:11.401Z,11.17
2017-04-08T07:14:11.069Z,11.26
2017-04-08T07:15:11.354Z,11.24
2017-04-08T07:16:11.327Z,11.17
2017-04-08T07:17:11.308Z,11.33
2017-04-08T07:18:11.285Z,11.3
2017-04-08T07:19:11.261Z,11.28
2017-04-08T07:20:11.244Z,11.28
2017-04-08T07:21:11.217Z,11.31
2017-04-08T07:22:11.203Z,11.33
2017-04-08T07:23:11.178Z,11.39
2017-04-08T07:24:11.609Z,11.41
2017-04-08T07:25:11.190Z,11.38
2017-04-08T07:26:11.119Z,11.39
2017-04-08T07:27:11.091Z,11.36
2017-04-08T07:28:10.760Z,11.42
2017-04-08T07:29:11.045Z,11.45
2017-04-08T07:30:11.023Z,11.45
2017-04-08T07:31:11.011Z,11.57
2017-04-08T07:32:10.986Z,11.62
2017-04-08T07:33:10.964Z,11.62
2017-04-08T07:34:10.997Z,11.72
2017-04-08T07:35:10.939Z,11.72
2017-04-08T07:36:10.609Z,11.69
2017-04-08T07:37:10.878Z,11.57
2017-04-08T07:38:10.556Z,11.6
2017-04-08T07:39:10.835Z,11.72
2017-04-08T07:40:10.814Z,11.72
2017-04-08T07:41:11.010Z,11.7
2017-04-08T07:42:10.766Z,11.7
2017-04-08T07:43:10.744Z,11.79
2017-04-08T07:44:10.725Z,11.74
2017-04-08T07:45:10.706Z,11.84
2017-04-08T07:46:10.722Z,11.79
2017-04-08T07:47:10.663Z,11.81
2017-04-08T07:48:10.640Z,11.94
2017-04-08T07:49:10.625Z,11.97
2017-04-08T07:50:10.603Z,11.97
2017-04-08T07:51:10.587Z,11.98
2017-04-08T07:52:10.555Z,11.97
2017-04-08T07:53:10.529Z,12.01
2017-04-08T07:54:10.519Z,12.11
2017-04-08T07:55:10.492Z,12.01
2017-04-08T07:56:10.512Z,11.97
2017-04-08T07:57:10.457Z,11.94
2017-04-08T07:58:11.184Z,11.85
2017-04-08T07:59:10.107Z,11.84
2017-04-08T08:00:10.382Z,11.82
2017-04-08T08:01:10.068Z,11.96
2017-04-08T08:02:10.364Z,11.87
2017-04-08T08:03:10.328Z,12.03
2017-04-08T08:04:09.999Z,12.04
2017-04-08T08:05:10.283Z,12.12
2017-04-08T08:06:09.959Z,12.16
2017-04-08T08:07:10.245Z,12.23
2017-04-08T08:08:10.219Z,12.15
2017-04-08T08:09:09.899Z,12.23
2017-04-08T08:10:10.186Z,12.23
2017-04-08T08:11:10.158Z,12.29
2017-04-08T08:12:10.132Z,12.33
2017-04-08T08:13:10.122Z,12.36
2017-04-08T08:14:10.113Z,12.44
2017-04-08T08:15:10.073Z,12.55
2017-04-08T08:16:10.050Z,12.63
2017-04-08T08:17:10.037Z,12.56
2017-04-08T08:18:10.009Z,12.66
2017-04-08T08:19:10.001Z,12.63
2017-04-08T08:20:09.974Z,12.67
2017-04-08T08:21:09.853Z,12.63
2017-04-08T08:22:09.929Z,12.62
2017-04-08T08:23:09.913Z,12.69
2017-04-08T08:24:09.940Z,12.63
2017-04-08T08:25:09.859Z,12.71
2017-04-08T08:26:09.851Z,12.61
2017-04-08T08:27:09.827Z,12.7
2017-04-08T08:28:09.852Z,12.79
2017-04-08T08:29:09.795Z,12.79
2017-04-08T08:30:09.478Z,12.81
2017-04-08T08:31:09.745Z,12.91
2017-04-08T08:32:09.718Z,12.94
2017-04-08T08:33:09.394Z,12.95
2017-04-08T08:34:09.681Z,13.03
2017-04-08T08:35:09.361Z,13.07
2017-04-08T08:36:09.643Z,13.06
2017-04-08T08:37:09.620Z,13.12
2017-04-08T08:38:09.616Z,13.17
2017-04-08T08:39:09.578Z,13.22
2017-04-08T08:40:09.255Z,13.19
2017-04-08T08:41:09.531Z,13.17
2017-04-08T08:42:09.569Z,13.29
2017-04-08T08:43:09.491Z,13.38
2017-04-08T08:44:09.487Z,13.36
2017-04-08T08:45:09.465Z,13.29
2017-04-08T08:46:09.445Z,13.29
2017-04-08T08:47:09.408Z,13.27
2017-04-08T08:48:09.392Z,13.24
2017-04-08T08:49:09.378Z,13.28
2017-04-08T08:50:09.355Z,13.28
2017-04-08T08:51:09.080Z,13.39
2017-04-08T08:52:09.361Z,13.41
2017-04-08T08:53:09.299Z,13.35
2017-04-08T08:54:09.287Z,13.32
2017-04-08T08:55:08.950Z,13.44
2017-04-08T08:56:09.478Z,13.41
2017-04-08T08:57:08.914Z,13.51
2017-04-08T08:58:08.887Z,13.53
2017-04-08T08:59:08.871Z,13.61
2017-04-08T09:00:09.151Z,13.54
2017-04-08T09:01:09.138Z,13.69
2017-04-08T09:02:08.814Z,13.71
2017-04-08T09:03:09.102Z,13.8
2017-04-08T09:04:09.170Z,13.71
2017-04-08T09:05:09.101Z,13.72
2017-04-08T09:06:08.747Z,13.8
2017-04-08T09:07:09.009Z,13.9
2017-04-08T09:08:09.045Z,13.75
2017-04-08T09:09:08.983Z,13.79
2017-04-08T09:10:09.152Z,13.65
2017-04-08T09:11:08.930Z,13.66
2017-04-08T09:12:08.945Z,13.61
2017-04-08T09:13:08.598Z,13.63
2017-04-08T09:14:08.892Z,13.65
2017-04-08T09:15:08.858Z,13.72
2017-04-08T09:16:08.839Z,13.75
2017-04-08T09:17:08.810Z,13.75
2017-04-08T09:18:08.815Z,13.75
2017-04-08T09:19:08.777Z,13.8
2017-04-08T09:20:08.757Z,13.81
2017-04-08T09:21:08.742Z,13.83
2017-04-08T09:22:08.767Z,13.93
2017-04-08T09:23:08.697Z,13.96
2017-04-08T09:24:08.723Z,14.09
2017-04-08T09:25:08.349Z,14.2
2017-04-08T09:26:08.636Z,14.29
2017-04-08T09:27:08.631Z,14.46
2017-04-08T09:28:08.643Z,14.45
2017-04-08T09:29:08.581Z,14.59
2017-04-08T09:30:08.551Z,14.53
2017-04-08T09:31:08.538Z,14.53
2017-04-08T09:32:08.567Z,14.54
2017-04-08T09:33:08.555Z,14.56
2017-04-08T09:34:08.491Z,14.54
2017-04-08T09:35:08.460Z,14.71
2017-04-08T09:36:08.437Z,14.63
2017-04-08T09:37:08.420Z,14.64
2017-04-08T09:38:08.108Z,14.6
2017-04-08T09:39:08.390Z,14.57
2017-04-08T09:40:08.365Z,14.52
2017-04-08T09:41:08.345Z,14.35
2017-04-08T09:42:08.326Z,14.31
2017-04-08T09:43:08.004Z,14.39
2017-04-08T09:44:08.281Z,14.35
2017-04-08T09:45:08.270Z,14.3
2017-04-08T09:46:08.241Z,14.21
2017-04-08T09:47:07.931Z,14.23
2017-04-08T09:48:08.212Z,14.27
2017-04-08T09:49:08.197Z,14.2
2017-04-08T09:50:08.166Z,14.21
2017-04-08T09:51:08.147Z,14.09
2017-04-08T09:52:08.134Z,14.02
2017-04-08T09:53:08.114Z,13.99
2017-04-08T09:54:08.148Z,14.04
2017-04-08T09:55:08.064Z,13.99
2017-04-08T09:56:07.742Z,13.96
2017-04-08T09:57:08.047Z,14.04
2017-04-08T09:58:08.040Z,14.09
2017-04-08T09:59:07.994Z,14.21
2017-04-08T10:00:07.972Z,14.06
2017-04-08T10:01:07.952Z,14.29
2017-04-08T10:02:07.925Z,14.45
2017-04-08T10:03:07.916Z,14.41
2017-04-08T10:04:07.894Z,14.38
2017-04-08T10:05:07.896Z,14.27
2017-04-08T10:06:07.858Z,14.35
2017-04-08T10:07:07.825Z,14.38
2017-04-08T10:08:07.812Z,14.48
2017-04-08T10:09:07.492Z,14.45
2017-04-08T10:10:07.819Z,14.56
2017-04-08T10:11:07.759Z,14.53
2017-04-08T10:12:07.736Z,14.41
2017-04-08T10:13:07.765Z,14.6
2017-04-08T10:14:07.696Z,14.57
2017-04-08T10:15:07.667Z,14.56
2017-04-08T10:16:07.650Z,14.61
2017-04-08T10:17:07.633Z,14.79
2017-04-08T10:18:07.622Z,14.86
2017-04-08T10:19:07.595Z,14.93
2017-04-08T10:20:07.575Z,15
2017-04-08T10:21:07.563Z,15
2017-04-08T10:22:07.541Z,15.09
2017-04-08T10:23:07.524Z,15.12
2017-04-08T10:24:07.499Z,15.05
2017-04-08T10:25:07.476Z,14.85
2017-04-08T10:26:07.461Z,14.78
2017-04-08T10:27:07.457Z,14.57
2017-04-08T10:28:07.488Z,14.46
2017-04-08T10:29:07.402Z,14.41
2017-04-08T10:30:07.381Z,14.39
2017-04-08T10:31:07.367Z,14.34
2017-04-08T10:32:07.343Z,14.27
2017-04-08T10:33:07.324Z,14.26
2017-04-08T10:34:07.309Z,14.29
2017-04-08T10:35:07.385Z,14.31
2017-04-08T10:36:07.272Z,14.41
2017-04-08T10:37:07.247Z,14.39
2017-04-08T10:38:07.254Z,14.56
2017-04-08T10:39:07.204Z,14.67
2017-04-08T10:40:07.181Z,14.9
2017-04-08T10:41:07.218Z,14.97
2017-04-08T10:42:07.148Z,15
2017-04-08T10:43:07.125Z,14.97
2017-04-08T10:44:06.806Z,14.9
2017-04-08T10:45:07.099Z,14.85
2017-04-08T10:46:07.075Z,14.83
2017-04-08T10:47:07.050Z,14.93
2017-04-08T10:48:07.042Z,15.05
2017-04-08T10:49:07.020Z,15.16
2017-04-08T10:50:06.689Z,15.34
2017-04-08T10:51:06.978Z,15.38
2017-04-08T10:52:06.953Z,15.52
2017-04-08T10:53:06.933Z,15.55
2017-04-08T10:54:06.930Z,15.7
2017-04-08T10:55:06.925Z,15.81
2017-04-08T10:56:06.879Z,16.01
2017-04-08T10:57:06.858Z,15.77
2017-04-08T10:58:06.244Z,15.66
2017-04-08T10:59:06.830Z,15.71
2017-04-08T11:00:06.801Z,15.53
2017-04-08T11:01:06.788Z,15.35
2017-04-08T11:02:06.766Z,15.33
2017-04-08T11:03:06.740Z,15.58
2017-04-08T11:04:06.723Z,15.51
2017-04-08T11:05:06.713Z,15.49
2017-04-08T11:06:06.684Z,15.51
2017-04-08T11:07:07.129Z,15.67
2017-04-08T11:08:06.664Z,15.84
2017-04-08T11:09:06.640Z,15.86
2017-04-08T11:10:06.613Z,15.99
2017-04-08T11:11:06.604Z,16.01
2017-04-08T11:12:06.274Z,15.95
2017-04-08T11:13:06.556Z,15.98
2017-04-08T11:14:06.526Z,16.07
2017-04-08T11:15:06.515Z,16.03
2017-04-08T11:16:06.501Z,15.91
2017-04-08T11:17:06.484Z,15.77
2017-04-08T11:18:06.457Z,15.78
2017-04-08T11:19:06.453Z,15.77
2017-04-08T11:20:06.419Z,15.6
2017-04-08T11:21:06.399Z,15.37
2017-04-08T11:22:06.439Z,15.3
2017-04-08T11:23:06.367Z,15.15
2017-04-08T11:24:06.350Z,15.16
2017-04-08T11:25:06.331Z,15.11
2017-04-08T11:26:06.765Z,15
2017-04-08T11:27:05.991Z,15
2017-04-08T11:28:06.268Z,14.9
2017-04-08T11:29:06.250Z,14.82
2017-04-08T11:30:06.231Z,14.78
2017-04-08T11:31:06.244Z,14.74
2017-04-08T11:32:07.039Z,14.54
2017-04-08T11:33:06.185Z,14.45
2017-04-08T11:34:06.156Z,14.44
2017-04-08T11:35:06.133Z,14.39
2017-04-08T11:36:06.124Z,14.41
2017-04-08T11:37:06.102Z,14.54
2017-04-08T11:38:06.074Z,14.64
2017-04-08T11:39:06.104Z,14.78
2017-04-08T11:40:06.035Z,14.71
2017-04-08T11:41:06.017Z,14.87
2017-04-08T11:42:05.992Z,14.94
2017-04-08T11:43:05.973Z,15.09
2017-04-08T11:44:05.977Z,15.15
2017-04-08T11:45:05.984Z,15.04
2017-04-08T11:46:05.917Z,15.09
2017-04-08T11:47:05.903Z,15.07
2017-04-08T11:48:05.880Z,15.07
2017-04-08T11:49:05.860Z,14.97
2017-04-08T11:50:05.844Z,14.98
2017-04-08T11:51:05.826Z,14.94
2017-04-08T11:52:05.798Z,15.04
2017-04-08T11:53:05.789Z,15.28
2017-04-08T11:54:06.408Z,15.37
2017-04-08T11:55:05.748Z,15.46
2017-04-08T11:56:05.433Z,15.62
2017-04-08T11:57:05.701Z,15.85
2017-04-08T11:58:05.685Z,16.01
2017-04-08T11:59:05.673Z,16.14
2017-04-08T12:00:05.644Z,16.17
2017-04-08T12:01:05.641Z,16.23
2017-04-08T12:02:05.614Z,16.26
2017-04-08T12:03:05.600Z,16.23
2017-04-08T12:04:05.577Z,16.1
2017-04-08T12:05:05.546Z,16.06
2017-04-08T12:06:05.532Z,15.98
2017-04-08T12:07:05.559Z,15.86
2017-04-08T12:08:05.542Z,15.84
2017-04-08T12:09:06.829Z,15.68
2017-04-08T12:10:05.457Z,15.59
2017-04-08T12:11:05.440Z,15.49
2017-04-08T12:12:05.416Z,15.44
2017-04-08T12:13:05.461Z,15.31
2017-04-08T12:14:05.089Z,15.28
2017-04-08T12:15:05.357Z,15.3
2017-04-08T12:16:05.337Z,15.2
2017-04-08T12:17:04.740Z,15.15
2017-04-08T12:18:05.312Z,15.16
2017-04-08T12:19:05.279Z,15.31
2017-04-08T12:20:04.964Z,15.25
2017-04-08T12:21:06.047Z,15.28
2017-04-08T12:22:05.229Z,15.37
2017-04-08T12:23:05.203Z,15.37
2017-04-08T12:24:05.235Z,15.41
2017-04-08T12:25:05.161Z,15.49
2017-04-08T12:26:05.199Z,15.52
2017-04-08T12:27:05.125Z,15.58
2017-04-08T12:28:05.152Z,15.66
2017-04-08T12:29:05.299Z,15.74
2017-04-08T12:30:05.072Z,15.77
2017-04-08T12:31:05.309Z,15.86
2017-04-08T12:32:05.039Z,15.88
2017-04-08T12:33:05.019Z,15.98
2017-04-08T12:34:05.008Z,15.93
2017-04-08T12:35:04.973Z,15.99
2017-04-08T12:36:05.006Z,16.17
2017-04-08T12:37:04.638Z,16.18
2017-04-08T12:38:04.928Z,16.32
2017-04-08T12:39:05.157Z,16.17
2017-04-08T12:40:04.880Z,16.22
2017-04-08T12:41:04.958Z,16.3
2017-04-08T12:42:04.537Z,16.22
2017-04-08T12:43:04.822Z,16.17
2017-04-08T12:44:04.798Z,16.07
2017-04-08T12:45:04.790Z,15.98
2017-04-08T12:46:04.767Z,15.98
2017-04-08T12:47:04.758Z,15.81
2017-04-08T12:48:04.439Z,15.71
2017-04-08T12:49:05.161Z,15.56
2017-04-08T12:50:04.692Z,15.41
2017-04-08T12:51:04.678Z,15.37
2017-04-08T12:52:04.648Z,15.37
2017-04-08T12:53:04.634Z,15.25
2017-04-08T12:54:04.618Z,15.3
2017-04-08T12:55:04.590Z,15.33